createdAt,value
2017-09-15T00:01:50.555Z,87.50
2017-09-15T00:04:18.037Z,87.30
2017-09-15T00:06:45.520Z,87.00
2017-09-15T00:09:13.012Z,87.10
2017-09-15T00:11:40.496Z,87.00
2017-09-15T00:14:07.982Z,86.70
2017-09-15T00:16:35.465Z,86.50
2017-09-15T00:19:03.097Z,86.60
2017-09-15T00:21:31.343Z,86.50
2017-09-15T00:23:58.842Z,86.40
2017-09-15T00:26:26.321Z,86.60
2017-09-15T00:28:53.795Z,86.80
2017-09-15T00:31:21.285Z,86.80
2017-09-15T00:33:48.760Z,87.00
2017-09-15T00:36:16.240Z,86.90
2017-09-15T00:38:43.756Z,86.70
2017-09-15T00:41:11.238Z,86.80
2017-09-15T00:43:39.476Z,86.70
2017-09-15T00:46:06.953Z,86.50
2017-09-15T00:48:34.435Z,86.80
2017-09-15T00:51:01.912Z,86.80
2017-09-15T00:53:29.394Z,86.40
2017-09-15T00:55:56.872Z,86.00
2017-09-15T00:58:24.352Z,85.50
2017-09-15T01:00:52.610Z,86.20
2017-09-15T01:03:20.856Z,86.40
2017-09-15T01:05:48.324Z,86.40
2017-09-15T01:08:15.809Z,86.10
2017-09-15T01:10:44.054Z,86.70
2017-09-15T01:13:11.533Z,86.70
2017-09-15T01:15:39.026Z,86.70
2017-09-15T01:18:06.506Z,86.70
2017-09-15T01:20:33.987Z,86.60
2017-09-15T01:23:01.476Z,86.50
2017-09-15T01:25:29.726Z,86.10
2017-09-15T01:27:57.209Z,86.00
2017-09-15T01:30:24.700Z,86.20
2017-09-15T01:32:52.170Z,86.40
2017-09-15T01:35:19.689Z,86.50
2017-09-15T01:37:47.176Z,86.40
2017-09-15T01:40:14.652Z,86.30
2017-09-15T01:42:42.135Z,86.30
2017-09-15T01:45:09.619Z,86.30
2017-09-15T01:47:37.104Z,87.10
2017-09-15T01:50:04.581Z,86.40
2017-09-15T01:52:32.070Z,86.70
2017-09-15T01:55:00.330Z,87.30
2017-09-15T01:57:27.815Z,87.20
2017-09-15T01:59:56.067Z,87.30
2017-09-15T02:02:23.556Z,87.20
2017-09-15T02:04:51.036Z,87.20
2017-09-15T02:07:18.504Z,87.30
2017-09-15T02:09:45.984Z,87.40
2017-09-15T02:14:47.460Z,87.40
2017-09-15T02:17:14.967Z,87.40
2017-09-15T02:19:42.443Z,87.60
2017-09-15T02:22:09.922Z,88.20
2017-09-15T02:24:37.409Z,87.70
2017-09-15T02:27:05.661Z,87.80
2017-09-15T02:29:33.144Z,87.70
2017-09-15T02:32:01.400Z,87.70
2017-09-15T02:34:28.884Z,87.70
2017-09-15T02:36:57.133Z,87.80
2017-09-15T02:39:24.617Z,87.80
2017-09-15T02:41:52.114Z,87.70
2017-09-15T02:44:19.594Z,87.70
2017-09-15T02:46:47.067Z,87.50
2017-09-15T02:49:14.540Z,87.50
2017-09-15T02:51:42.781Z,87.40
2017-09-15T02:54:10.250Z,87.40
2017-09-15T02:56:37.723Z,87.40
2017-09-15T02:59:06.005Z,87.40
2017-09-15T03:01:34.256Z,87.40
2017-09-15T03:04:01.741Z,87.40
2017-09-15T03:06:29.991Z,87.40
2017-09-15T03:08:57.455Z,87.30
2017-09-15T03:11:24.962Z,87.30
2017-09-15T03:13:52.420Z,87.80
2017-09-15T03:16:19.907Z,87.30
2017-09-15T03:18:47.387Z,87.20
2017-09-15T03:21:14.868Z,87.00
2017-09-15T03:23:42.348Z,87.10
2017-09-15T03:26:09.831Z,87.00
2017-09-15T03:28:37.320Z,86.70
2017-09-15T03:31:05.597Z,86.70
2017-09-15T03:33:33.851Z,86.80
2017-09-15T03:36:01.335Z,86.80
2017-09-15T03:38:29.583Z,86.60
2017-09-15T03:40:57.101Z,86.60
2017-09-15T03:43:24.590Z,86.40
2017-09-15T03:45:52.076Z,86.50
2017-09-15T03:48:20.319Z,86.50
2017-09-15T03:50:47.806Z,86.40
2017-09-15T03:53:16.067Z,86.40
2017-09-15T03:55:43.543Z,86.50
2017-09-15T03:58:11.807Z,86.60
2017-09-15T04:00:39.366Z,86.60
2017-09-15T04:03:06.889Z,86.50
2017-09-15T04:05:34.359Z,86.40
2017-09-15T04:08:01.866Z,86.60
2017-09-15T04:10:30.113Z,86.60
2017-09-15T04:12:57.583Z,86.60
2017-09-15T04:15:25.831Z,86.80
2017-09-15T04:17:53.319Z,86.70
2017-09-15T04:20:21.626Z,87.10
2017-09-15T04:22:49.155Z,87.10
2017-09-15T04:25:16.636Z,87.10
2017-09-15T04:27:44.119Z,87.20
2017-09-15T04:30:11.599Z,87.10
2017-09-15T04:32:39.092Z,87.00
2017-09-15T04:35:07.360Z,87.10
2017-09-15T04:37:35.644Z,87.00
2017-09-15T04:40:03.896Z,87.10
2017-09-15T04:42:31.372Z,86.90
2017-09-15T04:44:58.879Z,87.40
2017-09-15T04:47:26.360Z,87.40
2017-09-15T04:49:53.849Z,87.30
2017-09-15T04:52:21.327Z,86.70
2017-09-15T04:54:48.815Z,86.10
2017-09-15T04:57:16.282Z,85.90
2017-09-15T04:59:43.786Z,85.50
2017-09-15T05:02:11.275Z,85.30
2017-09-15T05:04:38.753Z,85.00
2017-09-15T05:07:06.250Z,85.60
2017-09-15T05:09:34.519Z,85.20
2017-09-15T05:12:02.021Z,85.00
2017-09-15T05:14:29.536Z,85.10
2017-09-15T05:16:57.020Z,84.80
2017-09-15T05:19:24.507Z,84.90
2017-09-15T05:21:52.021Z,85.00
2017-09-15T05:24:19.523Z,85.10
2017-09-15T05:26:47.483Z,85.10
2017-09-15T05:29:14.954Z,85.40
2017-09-15T05:31:42.456Z,85.30
2017-09-15T05:34:10.106Z,85.20
2017-09-15T05:36:38.359Z,85.30
2017-09-15T05:39:05.981Z,85.30
2017-09-15T05:41:33.471Z,85.30
2017-09-15T05:44:00.986Z,85.40
2017-09-15T05:46:28.504Z,85.40
2017-09-15T05:48:55.991Z,85.30
2017-09-15T05:51:23.475Z,85.20
2017-09-15T05:53:50.983Z,85.30
2017-09-15T05:56:18.471Z,85.70
2017-09-15T05:58:45.978Z,85.40
2017-09-15T06:01:13.480Z,85.20
2017-09-15T06:03:40.966Z,84.80
2017-09-15T06:06:08.456Z,84.10
2017-09-15T06:08:35.999Z,84.80
2017-09-15T06:11:03.545Z,85.00
2017-09-15T06:13:31.036Z,83.40
2017-09-15T06:15:58.528Z,83.20
2017-09-15T06:18:26.041Z,83.20
2017-09-15T06:20:53.579Z,83.20
2017-09-15T06:23:21.066Z,83.40
2017-09-15T06:25:48.554Z,83.30
2017-09-15T06:28:16.025Z,83.20
2017-09-15T06:30:43.512Z,83.80
2017-09-15T06:33:11.005Z,83.40
2017-09-15T06:35:38.494Z,83.10
2017-09-15T06:38:05.983Z,83.60
2017-09-15T06:40:33.491Z,83.20
2017-09-15T06:43:01.000Z,82.50
2017-09-15T06:45:28.508Z,81.90
2017-09-15T06:47:56.018Z,81.80
2017-09-15T06:50:23.638Z,81.10
2017-09-15T06:52:51.145Z,81.10
2017-09-15T06:55:18.648Z,81.30
2017-09-15T06:57:46.172Z,80.60
2017-09-15T07:00:13.651Z,80.10
2017-09-15T07:02:41.160Z,79.60
2017-09-15T07:05:08.651Z,79.70
2017-09-15T07:07:36.143Z,79.70
2017-09-15T07:10:03.632Z,79.40
2017-09-15T07:12:31.154Z,79.70
2017-09-15T07:14:58.642Z,79.90
2017-09-15T07:17:26.135Z,80.20
2017-09-15T07:19:53.624Z,80.20
2017-09-15T07:22:21.123Z,80.20
2017-09-15T07:24:48.611Z,80.50
2017-09-15T07:27:16.099Z,80.20
2017-09-15T07:29:43.592Z,80.40
2017-09-15T07:32:11.111Z,80.90
2017-09-15T07:34:38.615Z,80.90
2017-09-15T07:37:06.103Z,80.60
2017-09-15T07:39:33.616Z,81.10
2017-09-15T07:42:01.119Z,80.20
2017-09-15T07:44:28.627Z,80.30
2017-09-15T07:46:56.126Z,79.80
2017-09-15T07:49:23.627Z,79.50
2017-09-15T07:51:51.111Z,79.80
2017-09-15T07:54:18.604Z,79.00
2017-09-15T07:56:46.094Z,79.20
2017-09-15T07:59:13.573Z,79.00
2017-09-15T08:01:41.087Z,79.20
2017-09-15T08:04:09.356Z,78.90
2017-09-15T08:06:36.852Z,78.90
2017-09-15T08:09:04.395Z,78.60
2017-09-15T08:11:31.932Z,78.80
2017-09-15T08:13:59.433Z,78.40
2017-09-15T08:16:27.587Z,78.10
2017-09-15T08:18:55.265Z,77.40
2017-09-15T08:21:22.762Z,77.70
2017-09-15T08:23:50.244Z,77.90
2017-09-15T08:26:17.788Z,77.70
2017-09-15T08:28:45.453Z,77.70
2017-09-15T08:31:12.932Z,76.70
2017-09-15T08:33:41.211Z,77.00
2017-09-15T08:36:09.463Z,77.00
2017-09-15T08:38:36.950Z,77.00
2017-09-15T08:41:04.447Z,76.30
2017-09-15T08:43:31.969Z,76.10
2017-09-15T08:45:59.474Z,76.10
2017-09-15T08:48:26.983Z,75.50
2017-09-15T08:50:54.479Z,75.40
2017-09-15T08:53:22.001Z,74.70
2017-09-15T08:55:49.474Z,74.30
2017-09-15T08:58:17.002Z,74.20
2017-09-15T09:00:44.514Z,73.00
2017-09-15T09:03:12.027Z,73.20
2017-09-15T09:05:39.541Z,72.70
2017-09-15T09:08:07.043Z,72.30
2017-09-15T09:10:34.560Z,72.60
2017-09-15T09:13:02.055Z,71.60
2017-09-15T09:15:30.344Z,72.00
2017-09-15T09:17:57.865Z,71.90
2017-09-15T09:20:25.385Z,71.70
2017-09-15T09:22:52.915Z,71.70
2017-09-15T09:25:21.195Z,69.40
2017-09-15T09:27:48.665Z,69.40
2017-09-15T09:30:16.150Z,69.50
2017-09-15T09:32:43.648Z,69.10
2017-09-15T09:35:11.180Z,69.70
2017-09-15T09:37:38.726Z,68.70
2017-09-15T09:40:06.245Z,69.30
2017-09-15T09:42:33.768Z,68.80
2017-09-15T09:45:01.254Z,67.90
2017-09-15T09:47:28.759Z,68.10
2017-09-15T09:49:56.303Z,68.90
2017-09-15T09:52:23.799Z,69.20
2017-09-15T09:54:51.333Z,68.70
2017-09-15T09:57:18.840Z,68.80
2017-09-15T09:59:46.349Z,68.40
2017-09-15T10:02:13.908Z,68.10
2017-09-15T10:04:41.419Z,68.30
2017-09-15T10:07:08.944Z,68.50
2017-09-15T10:09:36.437Z,68.10
2017-09-15T10:12:03.961Z,69.90
2017-09-15T10:14:31.456Z,67.60
2017-09-15T10:16:59.007Z,66.60
2017-09-15T10:19:26.572Z,65.50
2017-09-15T10:21:54.194Z,65.70
2017-09-15T10:24:21.668Z,65.10
2017-09-15T10:26:49.188Z,64.00
2017-09-15T10:29:16.715Z,64.00
2017-09-15T10:31:44.207Z,63.80
2017-09-15T10:34:11.720Z,64.50
2017-09-15T10:36:39.266Z,64.90
2017-09-15T10:39:06.788Z,64.30
2017-09-15T10:41:34.304Z,63.50
2017-09-15T10:44:01.800Z,62.70
2017-09-15T10:46:29.348Z,62.50
2017-09-15T10:48:56.850Z,63.60
2017-09-15T10:51:24.396Z,64.00
2017-09-15T10:53:51.960Z,63.40
2017-09-15T10:56:19.471Z,64.60
2017-09-15T10:58:52.605Z,64.80
2017-09-15T11:01:20.179Z,64.20
2017-09-15T11:03:47.744Z,61.70
2017-09-15T11:06:15.288Z,59.30
2017-09-15T11:08:42.797Z,61.50
2017-09-15T11:11:10.312Z,59.60
2017-09-15T11:13:37.866Z,59.60
2017-09-15T11:16:05.359Z,59.90
2017-09-15T11:18:32.885Z,61.80
2017-09-15T11:21:00.399Z,63.00
2017-09-15T11:23:27.920Z,63.30
2017-09-15T11:25:55.426Z,62.10
2017-09-15T11:28:22.928Z,60.20
2017-09-15T11:30:50.432Z,59.90
2017-09-15T11:33:18.564Z,60.20
2017-09-15T11:35:46.063Z,59.40
2017-09-15T11:38:13.575Z,58.60
2017-09-15T11:40:41.161Z,58.70
2017-09-15T11:43:08.681Z,58.70
2017-09-15T11:45:36.179Z,59.20
2017-09-15T11:48:03.696Z,57.90
2017-09-15T11:50:31.229Z,57.80
2017-09-15T11:52:58.726Z,57.20
2017-09-15T11:55:26.283Z,57.50
2017-09-15T11:57:53.831Z,57.00
2017-09-15T12:00:21.350Z,56.50
2017-09-15T12:02:48.872Z,57.90
2017-09-15T12:05:16.420Z,57.10
2017-09-15T12:07:43.931Z,56.90
2017-09-15T12:10:11.484Z,57.70
2017-09-15T12:12:39.008Z,58.10
2017-09-15T12:15:06.615Z,57.50
2017-09-15T12:17:34.128Z,57.40
2017-09-15T12:20:01.691Z,56.60
2017-09-15T12:22:29.220Z,56.70
2017-09-15T12:24:56.775Z,55.60
2017-09-15T12:27:24.324Z,55.80
2017-09-15T12:29:52.664Z,55.10
2017-09-15T12:32:20.383Z,55.10
2017-09-15T12:34:47.957Z,54.30
2017-09-15T12:37:15.484Z,55.30
2017-09-15T12:39:42.981Z,55.20
2017-09-15T12:42:10.540Z,55.10
2017-09-15T12:44:38.062Z,55.50
2017-09-15T12:47:06.344Z,54.90
2017-09-15T12:49:33.881Z,54.80
2017-09-15T12:52:01.431Z,54.60
2017-09-15T12:54:28.948Z,54.70
2017-09-15T12:56:56.468Z,59.40
2017-09-15T12:59:23.976Z,55.80
2017-09-15T13:01:51.512Z,56.60
2017-09-15T13:04:19.189Z,56.50
2017-09-15T13:06:46.711Z,56.60
2017-09-15T13:09:14.214Z,55.80
2017-09-15T13:11:41.789Z,57.20
2017-09-15T13:14:10.630Z,56.80
2017-09-15T13:16:38.254Z,58.90
2017-09-15T13:19:05.866Z,58.00
2017-09-15T13:21:34.433Z,58.90
2017-09-15T13:24:01.945Z,58.80
2017-09-15T13:26:29.498Z,56.10
2017-09-15T13:28:57.028Z,57.40
2017-09-15T13:31:24.525Z,57.40
2017-09-15T13:33:52.049Z,54.40
2017-09-15T13:36:19.567Z,54.90
2017-09-15T13:38:47.856Z,54.30
2017-09-15T13:41:15.373Z,54.30
2017-09-15T13:43:42.920Z,54.90
2017-09-15T13:46:10.430Z,55.10
2017-09-15T13:48:38.704Z,55.10
2017-09-15T13:51:06.990Z,55.10
2017-09-15T13:53:34.488Z,55.00
2017-09-15T13:56:02.016Z,55.00
2017-09-15T13:58:29.528Z,55.10
2017-09-15T14:00:57.066Z,55.30
2017-09-15T14:03:24.580Z,55.70
2017-09-15T14:05:52.122Z,56.10
2017-09-15T14:08:19.664Z,56.70
2017-09-15T14:10:47.206Z,57.10
2017-09-15T14:13:14.702Z,57.10
2017-09-15T14:15:42.996Z,57.10
2017-09-15T14:18:10.508Z,57.00
2017-09-15T14:20:38.055Z,56.10
2017-09-15T14:23:05.872Z,57.30
2017-09-15T14:25:33.467Z,57.50
2017-09-15T14:28:00.991Z,57.40
2017-09-15T14:30:28.509Z,57.80
2017-09-15T14:32:55.995Z,57.40
2017-09-15T14:35:24.273Z,58.30
2017-09-15T14:37:51.803Z,58.20
2017-09-15T14:40:19.295Z,56.40
2017-09-15T14:42:46.811Z,56.30
2017-09-15T14:45:14.327Z,56.70
2017-09-15T14:47:41.851Z,57.20
2017-09-15T14:50:09.341Z,57.60
2017-09-15T14:52:36.895Z,57.30
2017-09-15T14:55:04.447Z,58.90
2017-09-15T14:57:32.110Z,57.70
2017-09-15T14:59:59.614Z,59.60
2017-09-15T15:02:27.140Z,59.90
2017-09-15T15:04:54.661Z,59.70
2017-09-15T15:07:22.216Z,59.70
2017-09-15T15:09:49.713Z,59.30
2017-09-15T15:12:17.306Z,61.50
2017-09-15T15:14:44.828Z,61.20
2017-09-15T15:17:12.372Z,59.50
2017-09-15T15:19:39.879Z,59.10
2017-09-15T15:22:07.375Z,60.60
2017-09-15T15:24:34.872Z,59.30
2017-09-15T15:27:02.393Z,59.10
2017-09-15T15:29:30.692Z,58.20
2017-09-15T15:31:58.248Z,57.60
2017-09-15T15:34:25.780Z,58.00
2017-09-15T15:36:53.323Z,57.50
2017-09-15T15:39:20.838Z,59.00
2017-09-15T15:41:48.383Z,58.80
2017-09-15T15:44:15.928Z,59.00
2017-09-15T15:46:43.419Z,59.30
2017-09-15T15:49:10.927Z,59.00
2017-09-15T15:51:38.434Z,58.30
2017-09-15T15:54:05.972Z,58.20
2017-09-15T15:56:33.480Z,57.50
2017-09-15T15:59:00.991Z,57.50
2017-09-15T16:01:28.503Z,56.60
2017-09-15T16:03:56.021Z,56.80
2017-09-15T16:06:23.559Z,57.00
2017-09-15T16:08:51.097Z,57.10
2017-09-15T16:11:18.627Z,57.60
2017-09-15T16:13:46.192Z,58.10
2017-09-15T16:16:13.846Z,58.60
2017-09-15T16:18:41.353Z,58.50
2017-09-15T16:21:08.901Z,58.90
2017-09-15T16:23:36.400Z,59.20
2017-09-15T16:26:03.902Z,59.10
2017-09-15T16:28:31.396Z,59.80
2017-09-15T16:30:59.029Z,60.50
2017-09-15T16:33:26.531Z,62.10
2017-09-15T16:35:54.073Z,60.90
2017-09-15T16:38:27.308Z,61.10
2017-09-15T16:41:00.519Z,62.10
2017-09-15T16:43:33.680Z,61.00
2017-09-15T16:46:06.751Z,60.70
2017-09-15T17:32:19.116Z,60.80
2017-09-15T17:34:47.517Z,68.10
2017-09-15T17:37:15.570Z,69.30
2017-09-15T17:39:43.432Z,69.50
2017-09-15T17:42:11.106Z,69.90
2017-09-15T17:44:39.484Z,71.00
2017-09-15T17:47:07.156Z,71.00
2017-09-15T17:49:35.004Z,71.20
2017-09-15T17:52:03.391Z,71.90
2017-09-15T17:54:30.973Z,71.90
2017-09-15T17:56:58.514Z,72.00
2017-09-15T17:59:29.020Z,72.50
2017-09-15T18:01:56.581Z,72.90
2017-09-15T18:04:24.926Z,73.30
2017-09-15T18:06:52.428Z,73.20
2017-09-15T18:09:20.710Z,74.00
2017-09-15T18:11:48.273Z,74.10
2017-09-15T18:14:15.830Z,74.00
2017-09-15T18:16:43.531Z,73.90
2017-09-15T18:19:11.094Z,74.20
2017-09-15T18:21:38.670Z,74.40
2017-09-15T18:24:06.209Z,74.10
2017-09-15T18:26:33.762Z,74.10
2017-09-15T18:29:01.304Z,74.10
2017-09-15T18:31:29.029Z,74.40
2017-09-15T18:33:56.583Z,74.10
2017-09-15T18:36:24.098Z,74.70
2017-09-15T18:38:51.587Z,75.00
2017-09-15T18:41:19.119Z,75.00
2017-09-15T18:43:47.698Z,75.20
2017-09-15T18:46:15.270Z,75.30
2017-09-15T18:48:42.853Z,74.90
2017-09-15T18:51:10.568Z,74.80
2017-09-15T18:53:38.107Z,74.90
2017-09-15T18:56:05.628Z,75.30
2017-09-15T18:58:33.136Z,75.40
2017-09-15T19:01:00.667Z,75.20
2017-09-15T19:03:28.206Z,75.30
2017-09-15T19:05:55.819Z,75.70
2017-09-15T19:08:23.401Z,75.60
2017-09-15T19:10:50.961Z,75.40
2017-09-15T19:13:18.709Z,75.80
2017-09-15T19:15:46.232Z,75.70
2017-09-15T19:18:13.784Z,75.70
2017-09-15T19:20:41.399Z,76.00
2017-09-15T19:23:08.913Z,76.30
2017-09-15T19:25:36.488Z,75.90
2017-09-15T19:28:04.097Z,76.30
2017-09-15T19:30:31.633Z,76.70
2017-09-15T19:32:59.227Z,76.20
2017-09-15T19:35:26.738Z,76.40
2017-09-15T19:37:54.283Z,76.40
2017-09-15T19:40:21.834Z,76.50
2017-09-15T19:42:49.539Z,76.80
2017-09-15T19:45:17.138Z,76.90
2017-09-15T19:47:44.717Z,77.10
2017-09-15T19:50:12.255Z,77.20
2017-09-15T19:52:40.604Z,77.90
2017-09-15T19:55:08.126Z,77.90
2017-09-15T19:57:36.407Z,78.00
2017-09-15T20:00:03.911Z,78.00
2017-09-15T20:02:31.435Z,78.20
2017-09-15T20:04:58.939Z,78.50
2017-09-15T20:07:26.466Z,78.70
2017-09-15T20:09:53.974Z,78.90
2017-09-15T20:12:21.485Z,78.90
2017-09-15T20:14:49.003Z,79.00
2017-09-15T20:17:16.516Z,79.10
2017-09-15T20:19:44.048Z,79.30
2017-09-15T20:22:11.625Z,79.50
2017-09-15T20:24:39.152Z,79.60
2017-09-15T20:27:06.653Z,79.70
2017-09-15T20:29:34.279Z,80.00
2017-09-15T20:32:01.793Z,80.10
2017-09-15T20:34:29.526Z,80.00
2017-09-15T20:36:57.025Z,80.20
2017-09-15T20:39:25.300Z,80.30
2017-09-15T20:41:52.904Z,80.30
2017-09-15T20:44:20.672Z,80.10
2017-09-15T20:46:48.180Z,80.30
2017-09-15T20:49:15.723Z,80.30
2017-09-15T20:51:43.248Z,80.40
2017-09-15T20:54:10.752Z,80.50
2017-09-15T20:56:38.299Z,80.70
2017-09-15T20:59:06.595Z,80.70
2017-09-15T21:01:34.157Z,80.70
2017-09-15T21:04:01.657Z,81.00
2017-09-15T21:06:29.164Z,81.00
2017-09-15T21:08:56.685Z,80.50
2017-09-15T21:11:24.172Z,80.80
2017-09-15T21:13:51.752Z,80.60
2017-09-15T21:16:20.019Z,80.20
2017-09-15T21:18:47.536Z,80.20
2017-09-15T21:21:15.087Z,80.10
2017-09-15T21:23:42.599Z,80.20
2017-09-15T21:26:10.091Z,80.20
2017-09-15T21:28:37.625Z,80.30
2017-09-15T21:31:05.112Z,80.10
2017-09-15T21:33:32.626Z,80.30
2017-09-15T21:36:00.131Z,80.00
2017-09-15T21:38:27.659Z,79.80
2017-09-15T21:40:55.195Z,79.20
2017-09-15T21:43:22.728Z,79.60
2017-09-15T21:45:50.207Z,79.80
2017-09-15T21:48:18.554Z,79.50
2017-09-15T21:50:46.102Z,79.50
2017-09-15T21:53:13.611Z,79.40
2017-09-15T21:55:41.379Z,79.00
2017-09-15T21:58:08.916Z,79.30
2017-09-15T22:00:37.832Z,79.80
2017-09-15T22:03:05.359Z,79.00
2017-09-15T22:05:33.043Z,79.00
2017-09-15T22:08:00.596Z,79.30
2017-09-15T22:10:28.140Z,79.50
2017-09-15T22:12:55.852Z,79.60
2017-09-15T22:15:23.433Z,79.80
2017-09-15T22:17:50.923Z,80.20
2017-09-15T22:20:18.445Z,80.10
2017-09-15T22:22:45.955Z,80.40
2017-09-15T22:25:13.455Z,80.40
2017-09-15T22:27:41.071Z,80.60
2017-09-15T22:30:08.600Z,80.90
2017-09-15T22:32:36.198Z,80.90
2017-09-15T22:35:03.723Z,81.00
2017-09-15T22:37:31.252Z,81.20
2017-09-15T22:39:58.832Z,81.10
2017-09-15T22:42:26.331Z,81.50
2017-09-15T22:44:53.838Z,81.40
2017-09-15T22:47:21.444Z,81.60
2017-09-15T22:49:48.957Z,81.20
2017-09-15T22:52:16.514Z,81.20
2017-09-15T22:54:44.015Z,81.20
2017-09-15T22:57:11.549Z,81.10
2017-09-15T22:59:39.027Z,81.20
2017-09-15T23:02:07.306Z,81.60
2017-09-15T23:04:34.885Z,81.50
2017-09-15T23:07:02.403Z,81.80
2017-09-15T23:09:29.896Z,81.80
2017-09-15T23:11:57.403Z,81.70
2017-09-15T23:14:24.938Z,81.80
2017-09-15T23:16:52.454Z,82.10
2017-09-15T23:19:19.987Z,82.20
2017-09-15T23:21:47.491Z,82.20
2017-09-15T23:24:15.115Z,82.10
2017-09-15T23:26:42.599Z,82.00
2017-09-15T23:29:10.119Z,81.90
2017-09-15T23:31:37.607Z,81.60
2017-09-15T23:34:05.151Z,81.90
2017-09-15T23:36:32.623Z,81.60
2017-09-15T23:39:00.887Z,81.70
2017-09-15T23:41:29.135Z,81.70
2017-09-15T23:43:56.623Z,81.60
2017-09-15T23:46:24.891Z,81.50
2017-09-15T23:48:52.387Z,81.40
2017-09-15T23:51:19.875Z,81.40
2017-09-15T23:53:47.363Z,81.40
2017-09-15T23:56:14.847Z,81.50
2017-09-15T23:58:42.344Z,81.80
